Time;durP1;ratioP1;P1;durP2;ratioP2;P2;SDS_P1;SDS_P2;PMS_P1;PMS_P2;Temp;Humidity;BMP_temperature;BMP_pressure;BME280_temperature;BME280_humidity;BME280_pressure;Samples;Min_cycle;Max_cycle;Signal;HPM_P1;HPM_P2
2021/07/26 00:02:24;;;;;;;2.53;2.10;;;19.70;93.30;;;;;;5055842;28;20032;-66
2021/07/26 00:04:50;;;;;;;3.13;2.38;;;19.70;93.20;;;;;;5067993;28;20107;-66
2021/07/26 00:07:15;;;;;;;3.75;2.45;;;19.60;93.20;;;;;;5060731;28;20059;-66
2021/07/26 00:09:40;;;;;;;7.45;2.10;;;19.60;93.40;;;;;;5074147;28;20551;-66
2021/07/26 00:12:27;;;;;;;3.47;2.58;;;19.50;93.50;;;;;;5073909;28;20040;-66
2021/07/26 00:14:53;;;;;;;4.90;2.38;;;19.50;93.80;;;;;;5055296;28;20079;-66
2021/07/26 00:17:18;;;;;;;2.92;1.90;;;19.50;93.60;;;;;;5066868;28;20492;-66
2021/07/26 00:19:44;;;;;;;4.75;2.60;;;19.60;93.60;;;;;;5057257;28;20021;-66
2021/07/26 00:22:09;;;;;;;4.28;3.30;;;19.50;93.80;;;;;;5075936;28;20021;-66
2021/07/26 00:24:35;;;;;;;4.05;2.80;;;19.40;94.50;;;;;;5063357;28;20500;-66
2021/07/26 00:27:00;;;;;;;4.47;2.95;;;19.30;94.40;;;;;;5064844;28;20095;-66
2021/07/26 00:29:26;;;;;;;3.63;2.40;;;19.30;94.70;;;;;;5073716;28;20024;-66
2021/07/26 00:31:51;;;;;;;2.83;2.17;;;19.20;94.80;;;;;;5075621;28;20150;-66
2021/07/26 00:34:25;;;;;;;2.90;2.35;;;19.20;94.80;;;;;;5077650;28;20032;-66
2021/07/26 00:36:55;;;;;;;3.33;2.53;;;19.20;94.80;;;;;;5061770;28;20021;-66
2021/07/26 00:39:26;;;;;;;4.45;2.25;;;19.20;95.00;;;;;;5075922;28;20019;-66
2021/07/26 00:41:53;;;;;;;2.83;1.98;;;19.10;95.00;;;;;;5066366;28;20033;-67
2021/07/26 00:44:21;;;;;;;3.30;2.70;;;19.20;95.00;;;;;;5055833;28;20489;-66
2021/07/26 00:46:47;;;;;;;4.25;2.88;;;19.10;95.10;;;;;;5054793;28;20051;-66
2021/07/26 00:49:15;;;;;;;3.40;2.47;;;19.10;95.20;;;;;;5055447;28;20052;-66
2021/07/26 00:51:48;;;;;;;4.05;2.70;;;19.10;95.30;;;;;;5077164;28;20020;-66
2021/07/26 00:54:17;;;;;;;3.53;2.55;;;19.10;95.40;;;;;;5061942;28;20032;-67
2021/07/26 00:56:44;;;;;;;4.00;2.80;;;19.00;95.50;;;;;;5049492;28;20513;-66
2021/07/26 00:59:10;;;;;;;3.22;2.47;;;19.00;95.60;;;;;;5065573;28;20396;-66
2021/07/26 01:01:37;;;;;;;6.07;2.08;;;18.90;95.70;;;;;;5073081;28;20557;-66
2021/07/26 01:04:03;;;;;;;3.30;1.80;;;19.00;95.90;;;;;;5063071;28;20036;-66
2021/07/26 01:06:28;;;;;;;3.58;1.90;;;19.00;95.50;;;;;;5066848;28;20028;-66
2021/07/26 01:08:54;;;;;;;2.38;1.70;;;19.10;95.40;;;;;;5064486;28;20441;-66
2021/07/26 01:11:20;;;;;;;3.00;1.65;;;19.10;95.40;;;;;;5058392;28;20012;-66
2021/07/26 01:13:45;;;;;;;3.03;1.90;;;19.10;95.30;;;;;;5072210;28;20063;-66
2021/07/26 01:16:11;;;;;;;2.78;1.83;;;19.10;95.20;;;;;;5074624;28;20052;-66
2021/07/26 01:18:37;;;;;;;2.17;1.38;;;19.20;95.20;;;;;;5075290;28;20048;-66
2021/07/26 01:21:14;;;;;;;4.88;1.80;;;19.10;95.10;;;;;;5062091;28;20028;-66
2021/07/26 01:23:42;;;;;;;2.17;1.55;;;19.20;95.00;;;;;;5073677;28;20016;-66
2021/07/26 01:26:11;;;;;;;2.38;1.63;;;19.10;95.00;;;;;;5047137;28;20016;-66
2021/07/26 01:28:40;;;;;;;3.47;1.67;;;19.10;94.90;;;;;;5068840;28;20180;-66
2021/07/26 01:31:05;;;;;;;2.53;1.63;;;19.10;94.90;;;;;;5054498;28;20028;-66
2021/07/26 01:33:32;;;;;;;3.85;1.77;;;19.10;94.90;;;;;;5077269;28;20039;-66
2021/07/26 01:35:58;;;;;;;2.42;1.92;;;19.10;94.90;;;;;;5056523;28;20016;-66
2021/07/26 01:38:24;;;;;;;2.80;1.58;;;19.00;94.90;;;;;;5062161;28;20021;-66
2021/07/26 01:40:53;;;;;;;4.47;2.45;;;19.10;94.90;;;;;;5073755;28;20028;-66
2021/07/26 01:43:19;;;;;;;3.42;2.47;;;19.00;95.10;;;;;;5060860;28;20047;-66
2021/07/26 01:46:00;;;;;;;6.07;3.97;;;19.00;95.30;;;;;;5072524;28;20041;-66
2021/07/26 01:48:52;;;;;;;4.38;3.13;;;18.80;95.80;;;;;;5062597;28;20021;-66
2021/07/26 01:51:23;;;;;;;6.55;3.05;;;18.80;96.00;;;;;;5064576;28;20020;-66
2021/07/26 01:53:49;;;;;;;6.10;3.22;;;18.70;96.30;;;;;;5064951;28;20108;-66
2021/07/26 01:56:15;;;;;;;3.75;2.88;;;18.60;96.50;;;;;;5070919;28;20115;-66
2021/07/26 01:58:42;;;;;;;3.97;2.67;;;18.60;96.60;;;;;;5065444;28;20028;-66
2021/07/26 02:01:07;;;;;;;4.20;2.90;;;18.60;96.70;;;;;;5054998;28;20032;-66
2021/07/26 02:03:33;;;;;;;3.95;2.70;;;18.60;96.70;;;;;;5073070;28;20548;-66
2021/07/26 02:05:58;;;;;;;2.83;2.20;;;18.60;96.70;;;;;;5055738;28;20016;-67
2021/07/26 02:08:24;;;;;;;3.75;2.25;;;18.60;96.70;;;;;;5066228;28;20042;-66
2021/07/26 02:10:49;;;;;;;5.60;3.42;;;18.70;96.60;;;;;;5076891;28;20381;-66
2021/07/26 02:13:15;;;;;;;3.83;3.20;;;18.70;96.60;;;;;;5078730;28;20016;-66
2021/07/26 02:15:41;;;;;;;3.25;2.03;;;18.60;96.60;;;;;;5078349;28;20430;-67
2021/07/26 02:18:06;;;;;;;4.07;2.40;;;18.60;96.70;;;;;;5074085;28;20115;-66
2021/07/26 02:20:32;;;;;;;2.92;2.15;;;18.60;96.70;;;;;;5070399;28;21159;-66
2021/07/26 02:22:57;;;;;;;3.35;2.40;;;18.60;96.60;;;;;;5076124;28;20048;-66
2021/07/26 02:25:23;;;;;;;4.40;2.40;;;18.70;96.50;;;;;;5063818;28;20028;-66
2021/07/26 02:27:48;;;;;;;3.30;2.22;;;18.70;96.50;;;;;;5073963;28;20025;-66
2021/07/26 02:30:15;;;;;;;3.50;2.08;;;18.70;96.40;;;;;;5057760;28;20431;-66
2021/07/26 02:32:41;;;;;;;2.55;1.92;;;18.70;96.40;;;;;;5078067;28;20020;-66
2021/07/26 02:35:08;;;;;;;2.78;1.85;;;18.70;96.40;;;;;;5077450;28;20033;-66
2021/07/26 02:37:33;;;;;;;4.20;2.28;;;18.70;96.40;;;;;;5064350;28;20119;-67
2021/07/26 02:39:59;;;;;;;5.70;2.05;;;18.70;96.40;;;;;;5075974;28;20103;-66
2021/07/26 02:42:25;;;;;;;2.47;2.17;;;18.70;96.40;;;;;;5063486;28;20025;-66
2021/07/26 02:44:51;;;;;;;5.10;3.40;;;18.70;96.40;;;;;;5076044;28;20048;-66
2021/07/26 02:47:16;;;;;;;3.60;2.88;;;18.60;96.50;;;;;;5057453;28;20024;-66
2021/07/26 02:49:42;;;;;;;5.13;3.30;;;18.60;96.60;;;;;;5059874;28;20056;-67
2021/07/26 02:52:07;;;;;;;4.22;3.05;;;18.50;96.80;;;;;;5060282;28;20094;-67
2021/07/26 02:54:33;;;;;;;6.50;3.40;;;18.50;96.90;;;;;;5063815;28;20485;-66
2021/07/26 02:56:58;;;;;;;6.10;2.70;;;18.40;96.90;;;;;;5075097;28;20457;-67
2021/07/26 02:59:24;;;;;;;3.10;2.33;;;18.40;97.00;;;;;;5062993;28;20021;-66
2021/07/26 03:01:51;;;;;;;3.72;3.10;;;18.50;97.00;;;;;;5073099;28;20111;-67
2021/07/26 03:04:17;;;;;;;3.42;2.97;;;18.50;97.00;;;;;;5076508;28;20355;-67
2021/07/26 03:06:43;;;;;;;4.60;3.20;;;18.40;97.00;;;;;;5077151;28;20465;-66
2021/07/26 03:09:08;;;;;;;5.40;3.38;;;18.40;97.10;;;;;;5060440;28;20031;-66
2021/07/26 03:11:36;;;;;;;6.15;3.20;;;18.40;97.20;;;;;;5054632;28;20017;-66
2021/07/26 03:14:01;;;;;;;4.28;3.47;;;18.30;97.30;;;;;;5074576;28;20021;-66
2021/07/26 03:16:27;;;;;;;4.72;3.67;;;18.30;97.40;;;;;;5074546;28;20154;-67
2021/07/26 03:18:52;;;;;;;5.78;3.90;;;18.30;97.60;;;;;;5076919;28;20069;-66
2021/07/26 03:21:18;;;;;;;5.97;4.35;;;18.20;97.80;;;;;;5061621;28;20095;-66
2021/07/26 03:23:43;;;;;;;4.85;4.25;;;18.20;98.00;;;;;;5079483;28;20024;-66
2021/07/26 03:26:09;;;;;;;5.65;4.35;;;18.20;98.20;;;;;;5065265;28;20035;-66
2021/07/26 03:28:35;;;;;;;5.85;4.40;;;18.10;98.40;;;;;;5074806;28;20096;-66
2021/07/26 03:31:01;;;;;;;5.38;3.72;;;18.10;98.70;;;;;;5075263;28;20539;-65
2021/07/26 03:33:28;;;;;;;6.55;4.35;;;18.10;98.80;;;;;;5058840;28;20059;-66
2021/07/26 03:35:53;;;;;;;8.20;4.32;;;18.00;98.80;;;;;;5077911;28;20114;-66
2021/07/26 03:38:23;;;;;;;5.90;4.50;;;18.00;98.90;;;;;;5061369;28;20123;-66
2021/07/26 03:40:49;;;;;;;6.15;4.80;;;18.00;99.00;;;;;;5076530;28;20024;-66
2021/07/26 03:43:15;;;;;;;7.15;5.00;;;17.90;99.10;;;;;;5059648;28;20020;-66
2021/07/26 03:45:42;;;;;;;6.78;5.07;;;17.90;99.30;;;;;;5074509;28;20556;-66
2021/07/26 03:48:07;;;;;;;6.10;5.03;;;17.90;99.40;;;;;;5074837;28;20508;-66
2021/07/26 03:50:33;;;;;;;6.15;5.38;;;17.90;99.60;;;;;;5056145;28;20021;-66
2021/07/26 03:52:58;;;;;;;8.20;5.75;;;17.80;99.80;;;;;;5060040;28;20051;-66
2021/07/26 03:55:32;;;;;;;7.00;5.45;;;17.90;99.90;;;;;;5061724;28;20035;-66
2021/07/26 03:57:58;;;;;;;8.00;6.07;;;17.80;99.90;;;;;;5075226;28;20031;-66
2021/07/26 04:00:25;;;;;;;8.10;6.28;;;17.80;99.90;;;;;;5060624;28;20025;-66
2021/07/26 04:08:22;;;;;;;7.60;5.90;;;17.80;99.90;;;;;;5065764;28;20029;-66
2021/07/26 04:11:00;;;;;;;8.52;5.20;;;17.80;99.90;;;;;;5072796;28;20021;-66
2021/07/26 04:13:26;;;;;;;9.02;6.00;;;17.80;99.90;;;;;;5074081;28;20492;-66
2021/07/26 04:15:52;;;;;;;7.85;6.28;;;17.70;99.90;;;;;;5070840;28;20107;-66
2021/07/26 04:18:18;;;;;;;8.63;6.50;;;17.80;99.90;;;;;;5048260;28;20067;-66
2021/07/26 04:20:43;;;;;;;8.18;6.63;;;17.70;99.90;;;;;;5058937;28;20055;-66
2021/07/26 04:23:11;;;;;;;8.55;6.07;;;17.70;99.90;;;;;;5074688;28;20048;-66
2021/07/26 04:25:37;;;;;;;8.50;6.10;;;17.70;99.90;;;;;;5060377;28;20025;-66
2021/07/26 04:28:03;;;;;;;7.63;6.20;;;17.70;99.90;;;;;;5055658;28;20021;-65
2021/07/26 04:30:28;;;;;;;7.85;6.75;;;17.70;99.90;;;;;;5055338;28;20505;-66
2021/07/26 04:32:54;;;;;;;7.75;6.00;;;17.70;99.90;;;;;;5054634;28;20501;-66
2021/07/26 04:35:19;;;;;;;8.25;6.78;;;17.70;99.90;;;;;;5057249;28;20025;-65
2021/07/26 04:37:46;;;;;;;10.13;7.35;;;17.70;99.90;;;;;;5069800;28;20023;-66
2021/07/26 04:40:12;;;;;;;13.00;7.38;;;17.70;99.90;;;;;;5074428;28;20020;-65
2021/07/26 04:42:39;;;;;;;7.13;6.25;;;17.70;99.90;;;;;;5068077;28;20072;-65
2021/07/26 04:45:06;;;;;;;7.10;6.38;;;17.70;99.90;;;;;;5046858;28;20052;-65
2021/07/26 04:47:32;;;;;;;6.70;6.05;;;17.80;99.90;;;;;;5073450;28;20092;-65
2021/07/26 04:49:57;;;;;;;7.28;5.43;;;17.70;99.90;;;;;;5072674;28;20103;-66
2021/07/26 04:52:23;;;;;;;8.98;6.57;;;17.80;99.90;;;;;;5072425;28;20066;-65
2021/07/26 04:54:48;;;;;;;8.30;6.40;;;17.80;99.90;;;;;;5056213;28;20084;-65
2021/07/26 04:57:14;;;;;;;8.02;6.15;;;17.80;99.90;;;;;;5074367;28;20443;-66
2021/07/26 04:59:39;;;;;;;10.45;6.28;;;17.90;99.90;;;;;;5056988;28;20016;-65
2021/07/26 05:02:05;;;;;;;6.95;5.78;;;17.90;99.90;;;;;;5073245;28;20028;-66
2021/07/26 05:04:31;;;;;;;9.73;6.28;;;17.90;99.90;;;;;;5074064;28;20381;-65
2021/07/26 05:07:01;;;;;;;8.25;6.50;;;18.00;99.90;;;;;;5074441;28;20028;-65
2021/07/26 05:09:27;;;;;;;7.10;6.18;;;18.00;99.90;;;;;;5064271;28;20016;-65
2021/07/26 05:11:52;;;;;;;8.77;6.72;;;18.00;99.90;;;;;;5092432;28;20137;-65
2021/07/26 05:14:18;;;;;;;9.98;6.78;;;18.00;99.90;;;;;;5092963;28;20042;-65
2021/07/26 05:16:44;;;;;;;8.48;6.97;;;18.00;99.90;;;;;;5092947;28;20028;-65
2021/07/26 05:19:09;;;;;;;15.02;6.72;;;18.00;99.90;;;;;;5085512;28;20020;-66
2021/07/26 05:21:35;;;;;;;8.95;7.03;;;18.10;99.90;;;;;;5074607;28;20016;-65
2021/07/26 05:24:00;;;;;;;10.50;6.68;;;18.10;99.90;;;;;;5092990;28;20032;-65
2021/07/26 05:26:27;;;;;;;8.80;6.43;;;18.10;99.90;;;;;;5092956;28;20024;-65
2021/07/26 05:28:53;;;;;;;9.20;6.50;;;18.10;99.90;;;;;;5092754;28;20095;-65
2021/07/26 05:31:18;;;;;;;9.35;6.53;;;18.10;99.90;;;;;;5092873;28;20089;-65
2021/07/26 05:33:45;;;;;;;7.72;6.55;;;18.20;99.90;;;;;;5092908;28;20028;-65
2021/07/26 05:36:10;;;;;;;7.28;6.32;;;18.20;99.90;;;;;;5092639;28;20069;-65
2021/07/26 05:38:36;;;;;;;10.15;6.20;;;18.30;99.90;;;;;;5092878;28;20024;-65
2021/07/26 05:41:01;;;;;;;10.15;7.00;;;18.30;99.90;;;;;;5091885;28;20024;-65
2021/07/26 05:43:27;;;;;;;8.85;6.68;;;18.30;99.90;;;;;;5092324;28;20022;-65
2021/07/26 05:46:32;;;;;;;;;;;;;;;;;;;;;
2021/07/26 05:48:57;;;;;;;8.50;7.15;;;18.40;99.90;;;;;;5092001;28;20016;-65
2021/07/26 05:51:24;;;;;;;9.95;7.80;;;18.50;99.90;;;;;;5092888;28;20040;-65
2021/07/26 05:53:49;;;;;;;10.88;7.13;;;18.50;99.90;;;;;;5092453;28;20016;-65
2021/07/26 05:56:15;;;;;;;8.48;7.22;;;18.50;99.90;;;;;;5092617;28;20500;-65
2021/07/26 05:58:42;;;;;;;9.32;7.63;;;18.50;99.90;;;;;;5092430;28;20069;-65
2021/07/26 06:01:36;;;;;;;8.32;7.28;;;18.50;99.90;;;;;;5092538;28;20030;-65
2021/07/26 06:04:02;;;;;;;9.43;7.30;;;18.50;99.90;;;;;;5092428;28;20474;-65
2021/07/26 06:06:29;;;;;;;10.35;7.30;;;18.50;99.90;;;;;;5074717;28;20016;-65
2021/07/26 06:08:54;;;;;;;9.38;7.75;;;18.50;99.90;;;;;;5080675;28;20103;-65
2021/07/26 06:11:20;;;;;;;9.63;8.20;;;18.50;99.90;;;;;;5072292;28;20099;-65
2021/07/26 06:13:45;;;;;;;9.50;7.85;;;18.50;99.90;;;;;;5071600;28;20385;-65
2021/07/26 06:16:10;;;;;;;8.35;7.15;;;18.50;99.90;;;;;;5091846;28;20077;-66
2021/07/26 06:18:36;;;;;;;8.07;6.55;;;18.50;99.90;;;;;;5071172;28;20019;-65
2021/07/26 06:21:06;;;;;;;9.85;6.75;;;18.50;99.90;;;;;;5070485;28;20021;-65
2021/07/26 06:23:32;;;;;;;8.18;6.63;;;18.50;99.90;;;;;;5066308;28;20027;-65
2021/07/26 06:25:57;;;;;;;9.82;7.53;;;18.60;99.90;;;;;;5071517;28;20381;-65
2021/07/26 06:28:23;;;;;;;8.65;6.53;;;18.60;99.90;;;;;;5071715;28;20055;-65
2021/07/26 06:30:48;;;;;;;8.18;6.55;;;18.70;99.90;;;;;;5053684;28;20538;-65
2021/07/26 06:33:14;;;;;;;8.38;6.82;;;18.70;99.90;;;;;;5053373;28;20025;-65
2021/07/26 06:35:39;;;;;;;8.68;5.63;;;18.80;99.90;;;;;;5074501;28;20537;-65
2021/07/26 06:38:05;;;;;;;9.93;7.50;;;18.80;99.90;;;;;;5077306;28;20111;-65
2021/07/26 06:40:31;;;;;;;11.82;7.28;;;18.90;99.80;;;;;;5077006;28;20502;-65
2021/07/26 06:42:57;;;;;;;8.20;6.78;;;18.90;99.70;;;;;;5077077;28;20016;-65
2021/07/26 06:45:22;;;;;;;10.70;6.70;;;18.90;99.90;;;;;;5079367;28;20506;-65
2021/07/26 06:47:49;;;;;;;8.07;7.20;;;19.00;99.80;;;;;;5074470;28;20092;-65
2021/07/26 06:50:15;;;;;;;9.60;7.35;;;19.10;99.80;;;;;;5073681;28;20016;-65
2021/07/26 06:52:41;;;;;;;8.65;7.43;;;19.10;99.80;;;;;;5063108;28;20021;-65
2021/07/26 06:55:06;;;;;;;11.45;7.50;;;19.20;99.70;;;;;;5077731;28;20109;-65
2021/07/26 06:57:32;;;;;;;10.27;7.07;;;19.20;99.50;;;;;;5093354;28;20111;-65
2021/07/26 06:59:57;;;;;;;7.88;7.07;;;19.30;99.30;;;;;;5095597;28;20028;-65
2021/07/26 07:02:23;;;;;;;14.20;7.47;;;19.40;99.00;;;;;;5095280;28;20482;-64
2021/07/26 07:04:49;;;;;;;10.32;6.90;;;19.50;98.80;;;;;;5091433;28;20016;-65
2021/07/26 07:07:14;;;;;;;9.77;7.10;;;19.50;98.50;;;;;;5077217;28;20111;-65
2021/07/26 07:09:40;;;;;;;7.40;6.70;;;19.60;98.50;;;;;;5077143;28;20015;-65
2021/07/26 07:12:06;;;;;;;8.60;6.05;;;19.60;98.40;;;;;;5068748;28;20047;-65
2021/07/26 07:14:34;;;;;;;6.65;5.40;;;19.70;98.50;;;;;;5095281;28;20497;-65
2021/07/26 07:17:00;;;;;;;5.63;4.47;;;19.70;98.40;;;;;;5095117;28;20493;-65
2021/07/26 07:19:25;;;;;;;5.35;4.72;;;19.70;98.30;;;;;;5095292;28;20074;-65
2021/07/26 07:22:01;;;;;;;6.35;5.35;;;19.80;98.10;;;;;;5095122;28;20024;-65
2021/07/26 07:24:26;;;;;;;7.72;5.50;;;19.80;97.60;;;;;;5090849;28;20024;-65
2021/07/26 07:26:52;;;;;;;6.55;4.93;;;19.70;97.40;;;;;;5084456;28;20020;-65
2021/07/26 07:29:17;;;;;;;8.30;5.60;;;19.80;97.40;;;;;;5092665;28;20489;-66
2021/07/26 07:31:43;;;;;;;14.95;7.75;;;19.90;97.40;;;;;;5092388;28;20413;-66
2021/07/26 07:34:34;;;;;;;6.85;5.57;;;20.00;97.20;;;;;;5093846;28;20382;-65
2021/07/26 07:37:03;;;;;;;7.53;5.75;;;20.00;97.00;;;;;;5079282;28;20493;-65
2021/07/26 07:39:29;;;;;;;7.10;5.50;;;20.00;97.00;;;;;;5081861;28;20074;-65
2021/07/26 07:41:54;;;;;;;6.38;4.85;;;20.10;97.00;;;;;;5094885;28;20028;-65
2021/07/26 07:44:20;;;;;;;7.15;5.93;;;20.30;97.00;;;;;;5094661;28;20030;-65
2021/07/26 07:46:45;;;;;;;7.63;5.90;;;20.40;96.40;;;;;;5076497;28;20040;-65
2021/07/26 07:49:11;;;;;;;6.63;5.50;;;20.40;96.20;;;;;;5076095;28;20067;-65
2021/07/26 07:51:36;;;;;;;6.18;5.07;;;20.40;96.10;;;;;;5073978;28;20456;-65
2021/07/26 07:54:02;;;;;;;5.88;4.97;;;20.50;96.20;;;;;;5093955;28;20032;-65
2021/07/26 07:56:28;;;;;;;7.03;5.15;;;20.60;96.00;;;;;;5094694;28;20389;-65
2021/07/26 07:58:55;;;;;;;6.18;5.10;;;20.60;95.70;;;;;;5094474;28;20024;-65
2021/07/26 08:01:31;;;;;;;9.70;7.30;;;20.70;95.70;;;;;;5094173;28;20035;-65
2021/07/26 08:04:02;;;;;;;10.93;6.18;;;20.70;95.60;;;;;;5074967;28;20032;-65
2021/07/26 08:06:28;;;;;;;7.60;6.00;;;20.70;95.50;;;;;;5094277;28;20533;-65
2021/07/26 08:08:53;;;;;;;7.07;5.32;;;20.80;95.30;;;;;;5075755;28;20107;-65
2021/07/26 08:11:19;;;;;;;4.88;4.28;;;20.80;95.10;;;;;;5088992;28;20051;-64
2021/07/26 08:13:44;;;;;;;6.03;4.30;;;20.80;95.10;;;;;;5083179;28;20392;-65
2021/07/26 08:16:10;;;;;;;4.82;3.78;;;20.90;94.60;;;;;;5093845;28;20028;-65
2021/07/26 08:18:35;;;;;;;6.03;4.28;;;21.00;94.50;;;;;;5077172;28;20107;-65
2021/07/26 08:21:01;;;;;;;5.70;4.22;;;21.10;94.30;;;;;;5061177;28;20024;-65
2021/07/26 08:23:26;;;;;;;5.13;4.00;;;21.10;93.90;;;;;;5088910;28;20033;-65
2021/07/26 08:25:52;;;;;;;4.13;2.88;;;21.10;93.60;;;;;;5092160;28;20082;-65
2021/07/26 08:28:19;;;;;;;4.20;3.35;;;21.30;93.50;;;;;;5060779;28;20355;-65
2021/07/26 08:30:44;;;;;;;4.25;3.45;;;21.40;93.30;;;;;;5056718;28;20020;-66
2021/07/26 08:33:10;;;;;;;6.07;3.63;;;21.40;92.90;;;;;;5058253;28;20036;-66
2021/07/26 08:35:36;;;;;;;4.30;3.15;;;21.40;92.70;;;;;;5073834;28;20474;-65
2021/07/26 08:38:03;;;;;;;3.67;3.08;;;21.50;92.70;;;;;;5093789;28;20066;-65
2021/07/26 08:40:30;;;;;;;4.32;3.53;;;21.50;92.60;;;;;;5075592;28;20032;-65
2021/07/26 08:45:55;;;;;;;;;;;21.60;92.30;;;;;;5093712;28;20040;-66
2021/07/26 08:48:24;;;;;;;3.35;2.72;;;21.60;92.20;;;;;;5093150;28;19949;-65
2021/07/26 08:50:53;;;;;;;3.45;2.90;;;21.60;92.30;;;;;;5074820;28;20028;-65
2021/07/26 08:53:20;;;;;;;4.50;2.40;;;21.60;92.10;;;;;;5089683;28;20028;-66
2021/07/26 08:55:48;;;;;;;2.95;2.17;;;21.60;92.00;;;;;;5074911;28;20065;-65
2021/07/26 08:58:15;;;;;;;3.28;2.42;;;21.70;92.00;;;;;;5093296;28;20030;-66
2021/07/26 09:00:49;;;;;;;4.68;2.00;;;21.80;91.60;;;;;;5075251;28;20035;-65
2021/07/26 09:03:14;;;;;;;5.78;2.42;;;21.70;90.90;;;;;;5092849;28;20038;-65
2021/07/26 09:05:41;;;;;;;4.63;2.65;;;21.60;90.70;;;;;;5088272;28;20037;-65
2021/07/26 09:08:07;;;;;;;3.78;2.40;;;21.60;90.90;;;;;;5061809;28;20017;-65
2021/07/26 09:10:33;;;;;;;3.97;2.40;;;21.60;91.00;;;;;;5088577;28;20085;-66
2021/07/26 09:12:59;;;;;;;3.35;1.85;;;21.60;90.90;;;;;;5046355;28;20025;-64
2021/07/26 09:15:28;;;;;;;2.63;2.40;;;21.80;90.80;;;;;;5087468;28;20028;-65
2021/07/26 09:17:56;;;;;;;4.18;2.35;;;21.80;91.00;;;;;;5077340;28;20027;-65
2021/07/26 09:20:28;;;;;;;2.53;1.58;;;21.90;90.80;;;;;;5077683;28;20081;-66
2021/07/26 09:22:53;;;;;;;1.85;1.65;;;21.90;90.40;;;;;;5071962;28;20077;-65
2021/07/26 09:25:29;;;;;;;3.28;1.95;;;22.00;90.50;;;;;;5088545;28;20032;-65
2021/07/26 09:28:09;;;;;;;3.95;1.83;;;22.10;90.30;;;;;;5080520;28;20025;-65
2021/07/26 09:30:47;;;;;;;3.90;2.15;;;22.20;90.10;;;;;;5082341;28;20062;-66
2021/07/26 09:33:15;;;;;;;7.15;2.00;;;22.30;90.00;;;;;;5075567;28;20381;-65
2021/07/26 09:35:42;;;;;;;2.20;1.60;;;22.50;89.70;;;;;;5072268;28;20020;-65
2021/07/26 09:38:09;;;;;;;2.78;2.33;;;22.60;89.00;;;;;;5085061;28;20027;-65
2021/07/26 09:40:35;;;;;;;3.42;2.40;;;22.70;87.90;;;;;;5079288;28;20457;-65
2021/07/26 09:43:25;;;;;;;4.72;2.63;;;22.70;87.80;;;;;;5075886;28;20028;-65
2021/07/26 09:45:54;;;;;;;3.97;3.30;;;22.90;87.60;;;;;;5087619;28;20078;-65
2021/07/26 09:48:22;;;;;;;3.50;2.80;;;23.00;86.90;;;;;;5091445;28;20016;-66
2021/07/26 09:50:49;;;;;;;2.95;2.63;;;23.00;86.50;;;;;;5082516;28;20048;-65
2021/07/26 09:53:21;;;;;;;2.63;2.08;;;23.00;86.40;;;;;;5072663;28;20013;-66
2021/07/26 09:55:49;;;;;;;2.85;1.80;;;23.10;85.90;;;;;;5087022;28;20028;-65
2021/07/26 09:58:17;;;;;;;3.05;2.67;;;23.10;85.80;;;;;;5089498;28;20019;-66
2021/07/26 10:00:44;;;;;;;2.83;2.05;;;23.10;85.30;;;;;;5066783;28;20073;-66
2021/07/26 10:03:12;;;;;;;2.53;1.80;;;23.00;86.20;;;;;;5072725;28;20032;-66
2021/07/26 10:05:39;;;;;;;3.55;2.08;;;22.90;85.50;;;;;;5058946;28;20028;-65
2021/07/26 10:08:06;;;;;;;2.00;1.67;;;22.90;84.00;;;;;;5090715;28;20021;-65
2021/07/26 10:10:36;;;;;;;2.47;1.60;;;22.90;83.90;;;;;;5064220;28;20016;-66
2021/07/26 10:13:03;;;;;;;1.95;1.73;;;23.00;84.30;;;;;;5073277;28;20406;-65
2021/07/26 10:15:31;;;;;;;2.72;1.98;;;23.00;84.00;;;;;;5072285;28;20021;-65
2021/07/26 10:17:57;;;;;;;1.98;1.52;;;23.10;84.50;;;;;;5071576;28;20074;-66
2021/07/26 10:20:25;;;;;;;1.83;1.50;;;23.20;85.00;;;;;;5084417;28;20515;-66
2021/07/26 10:23:09;;;;;;;3.95;1.83;;;23.40;84.00;;;;;;5062538;28;20057;-66
2021/07/26 10:26:00;;;;;;;2.58;1.70;;;23.40;82.10;;;;;;5071786;28;20033;-66
2021/07/26 10:28:29;;;;;;;2.45;1.52;;;23.30;82.30;;;;;;5076246;28;20111;-65
2021/07/26 10:30:55;;;;;;;2.85;1.65;;;23.40;83.40;;;;;;5075774;28;20021;-66
2021/07/26 10:33:22;;;;;;;4.03;1.38;;;23.70;81.90;;;;;;5061033;28;20093;-66
2021/07/26 10:35:53;;;;;;;2.03;1.65;;;23.70;79.80;;;;;;5086759;28;20382;-66
2021/07/26 10:38:43;;;;;;;3.10;1.67;;;23.60;81.00;;;;;;5072844;28;20048;-66
2021/07/26 10:41:10;;;;;;;2.38;1.60;;;23.80;82.30;;;;;;5078663;28;20029;-66
2021/07/26 10:43:55;;;;;;;5.07;1.50;;;23.90;82.00;;;;;;5074184;28;20024;-67
2021/07/26 10:46:21;;;;;;;1.60;1.30;;;24.00;80.30;;;;;;5084423;28;20086;-68
2021/07/26 10:48:53;;;;;;;5.65;1.52;;;24.10;79.30;;;;;;5047969;28;20028;-67
2021/07/26 10:51:38;;;;;;;2.22;1.70;;;24.20;79.60;;;;;;5070092;28;20103;-67
2021/07/26 10:54:08;;;;;;;4.57;1.65;;;24.00;79.50;;;;;;5094617;28;20032;-67
2021/07/26 10:57:00;;;;;;;2.33;1.58;;;23.90;80.40;;;;;;5067126;28;20044;-67
2021/07/26 10:59:26;;;;;;;3.00;2.15;;;23.90;80.10;;;;;;5056126;28;20493;-67
2021/07/26 11:02:29;;;;;;;5.10;1.95;;;24.00;80.70;;;;;;5058587;28;20039;-65
2021/07/26 11:04:55;;;;;;;3.53;2.28;;;24.20;80.60;;;;;;5074241;28;20031;-65
2021/07/26 11:07:28;;;;;;;1.77;1.60;;;24.20;80.20;;;;;;5092702;28;20019;-65
2021/07/26 11:09:54;;;;;;;2.50;1.92;;;23.90;79.10;;;;;;5091669;28;20012;-65
2021/07/26 11:12:50;;;;;;;3.10;1.73;;;23.80;80.10;;;;;;5093395;28;20066;-66
2021/07/26 11:15:42;;;;;;;2.33;2.00;;;23.70;79.20;;;;;;5092624;28;20035;-65
2021/07/26 11:18:28;;;;;;;2.80;1.70;;;23.50;79.40;;;;;;5092135;28;20035;-66
2021/07/26 11:21:03;;;;;;;4.18;2.15;;;23.50;80.00;;;;;;5090575;28;20124;-66
2021/07/26 11:23:45;;;;;;;2.40;2.10;;;23.50;80.00;;;;;;5093228;28;20500;-65
2021/07/26 11:26:16;;;;;;;3.63;2.40;;;23.40;80.60;;;;;;5092927;28;20073;-66
2021/07/26 11:28:41;;;;;;;2.45;2.05;;;23.40;81.30;;;;;;5089338;28;20070;-66
2021/07/26 11:31:07;;;;;;;3.00;2.22;;;23.40;81.50;;;;;;5075431;28;20029;-66
2021/07/26 11:33:38;;;;;;;3.08;2.28;;;23.50;81.60;;;;;;5086038;28;20504;-65
2021/07/26 11:36:07;;;;;;;2.25;1.95;;;23.50;81.20;;;;;;5060487;28;20501;-66
2021/07/26 11:38:53;;;;;;;2.90;2.17;;;23.50;81.30;;;;;;5073397;28;20032;-66
2021/07/26 11:41:20;;;;;;;2.70;2.10;;;23.60;81.10;;;;;;5056604;28;20020;-66
2021/07/26 11:43:47;;;;;;;3.75;2.70;;;23.60;81.50;;;;;;5074411;28;20024;-66
2021/07/26 11:46:13;;;;;;;5.72;3.38;;;23.70;81.30;;;;;;5074024;28;20596;-66
2021/07/26 11:48:38;;;;;;;4.88;3.00;;;23.70;81.20;;;;;;5074030;28;20013;-66
2021/07/26 11:51:04;;;;;;;3.65;2.75;;;23.70;81.70;;;;;;5075267;28;20099;-66
2021/07/26 11:53:30;;;;;;;4.35;3.13;;;23.70;81.30;;;;;;5090815;28;20530;-66
2021/07/26 11:55:56;;;;;;;3.17;2.58;;;23.80;81.30;;;;;;5068597;28;20028;-66
2021/07/26 11:58:29;;;;;;;5.30;3.45;;;24.00;81.10;;;;;;5076908;28;20050;-66
2021/07/26 12:00:55;;;;;;;2.42;2.05;;;24.10;80.90;;;;;;5088878;28;20489;-66
2021/07/26 12:03:23;;;;;;;3.60;2.40;;;24.30;79.30;;;;;;5067924;28;20024;-67
2021/07/26 12:06:00;;;;;;;3.70;2.35;;;24.50;77.70;;;;;;5074862;28;20442;-67
2021/07/26 12:08:27;;;;;;;3.47;1.67;;;24.70;77.00;;;;;;5065714;28;20017;-66
2021/07/26 12:10:53;;;;;;;2.38;1.63;;;24.80;76.40;;;;;;5076106;28;20494;-66
2021/07/26 12:13:20;;;;;;;2.75;1.67;;;24.80;75.90;;;;;;5063638;28;20026;-66
2021/07/26 12:15:47;;;;;;;3.13;2.22;;;24.80;76.30;;;;;;5086678;28;20020;-66
2021/07/26 12:18:17;;;;;;;2.65;2.22;;;24.90;76.00;;;;;;5076069;28;20025;-67
2021/07/26 12:20:59;;;;;;;3.05;2.28;;;25.00;74.60;;;;;;5072229;28;20020;-66
2021/07/26 12:23:28;;;;;;;3.00;2.15;;;24.90;74.20;;;;;;5059813;28;20027;-66
2021/07/26 12:26:07;;;;;;;2.33;2.13;;;24.90;74.70;;;;;;5085917;28;20056;-67
2021/07/26 12:28:49;;;;;;;5.57;2.17;;;25.00;75.40;;;;;;5077649;28;20216;-66
2021/07/26 12:31:30;;;;;;;3.55;2.13;;;25.30;76.90;;;;;;5083068;28;20025;-66
2021/07/26 12:34:28;;;;;;;3.70;2.60;;;25.50;74.20;;;;;;5080405;28;20473;-66
2021/07/26 12:36:57;;;;;;;2.92;2.03;;;25.70;72.30;;;;;;5083345;28;20551;-66
2021/07/26 12:39:43;;;;;;;4.05;2.60;;;25.60;71.90;;;;;;5078868;28;20029;-66
2021/07/26 12:42:22;;;;;;;3.22;2.50;;;25.60;72.30;;;;;;5084540;28;20035;-66
2021/07/26 12:44:47;;;;;;;4.15;2.25;;;25.60;72.30;;;;;;5092850;28;20056;-66
2021/07/26 12:47:26;;;;;;;5.28;2.58;;;25.80;72.20;;;;;;5080713;28;20028;-66
2021/07/26 12:49:52;;;;;;;4.22;2.45;;;25.80;70.70;;;;;;5070996;28;20472;-67
2021/07/26 12:52:18;;;;;;;4.88;2.40;;;25.60;70.40;;;;;;5088913;28;20024;-67
2021/07/26 12:54:44;;;;;;;3.40;1.98;;;25.40;70.60;;;;;;5067547;28;20024;-67
2021/07/26 12:57:09;;;;;;;3.08;2.63;;;25.10;71.10;;;;;;5084641;28;20039;-66
2021/07/26 12:59:37;;;;;;;3.33;2.33;;;24.90;71.40;;;;;;5070119;28;20024;-66
2021/07/26 13:02:05;;;;;;;3.25;2.25;;;24.80;72.10;;;;;;5073006;28;20024;-66
2021/07/26 13:04:32;;;;;;;2.80;2.00;;;24.80;72.60;;;;;;5093201;28;20032;-66